sensor_id;sensor_type;location;lat;lon;timestamp;temperature;humidity
68480;DHT22;55469;48.934;12.050;2023-04-30T00:00:56;14.20;85.80
68480;DHT22;55469;48.934;12.050;2023-04-30T00:03:21;14.20;85.80
68480;DHT22;55469;48.934;12.050;2023-04-30T00:05:52;14.20;86.00
68480;DHT22;55469;48.934;12.050;2023-04-30T00:08:17;14.20;85.80
68480;DHT22;55469;48.934;12.050;2023-04-30T00:10:43;14.20;85.80
68480;DHT22;55469;48.934;12.050;2023-04-30T00:13:09;14.10;85.90
68480;DHT22;55469;48.934;12.050;2023-04-30T00:15:35;14.20;86.00
68480;DHT22;55469;48.934;12.050;2023-04-30T00:18:01;14.20;86.00
68480;DHT22;55469;48.934;12.050;2023-04-30T00:20:27;14.20;85.90
68480;DHT22;55469;48.934;12.050;2023-04-30T00:22:53;14.20;85.90
68480;DHT22;55469;48.934;12.050;2023-04-30T00:25:18;14.10;85.60
68480;DHT22;55469;48.934;12.050;2023-04-30T00:27:45;14.10;85.80
68480;DHT22;55469;48.934;12.050;2023-04-30T00:30:11;14.10;85.90
68480;DHT22;55469;48.934;12.050;2023-04-30T00:32:37;14.10;86.20
68480;DHT22;55469;48.934;12.050;2023-04-30T00:35:03;14.10;85.90
68480;DHT22;55469;48.934;12.050;2023-04-30T00:37:29;14.10;86.00
68480;DHT22;55469;48.934;12.050;2023-04-30T00:39:55;14.10;85.80
68480;DHT22;55469;48.934;12.050;2023-04-30T00:42:20;14.10;85.80
68480;DHT22;55469;48.934;12.050;2023-04-30T00:44:46;14.10;85.80
68480;DHT22;55469;48.934;12.050;2023-04-30T00:47:12;14.10;85.90
68480;DHT22;55469;48.934;12.050;2023-04-30T00:49:38;14.10;85.80
68480;DHT22;55469;48.934;12.050;2023-04-30T00:52:03;14.00;85.80
68480;DHT22;55469;48.934;12.050;2023-04-30T00:54:30;14.00;85.90
68480;DHT22;55469;48.934;12.050;2023-04-30T00:56:56;14.00;85.80
68480;DHT22;55469;48.934;12.050;2023-04-30T00:59:23;14.00;86.00
68480;DHT22;55469;48.934;12.050;2023-04-30T01:01:49;14.00;85.90
68480;DHT22;55469;48.934;12.050;2023-04-30T01:04:16;13.90;85.90
68480;DHT22;55469;48.934;12.050;2023-04-30T01:06:42;13.90;85.80
68480;DHT22;55469;48.934;12.050;2023-04-30T01:09:08;13.90;85.90
68480;DHT22;55469;48.934;12.050;2023-04-30T01:11:49;13.90;86.00
68480;DHT22;55469;48.934;12.050;2023-04-30T01:18:01;13.90;86.00
68480;DHT22;55469;48.934;12.050;2023-04-30T01:20:29;13.90;85.80
68480;DHT22;55469;48.934;12.050;2023-04-30T01:23:13;13.80;85.90
68480;DHT22;55469;48.934;12.050;2023-04-30T01:26:13;13.80;85.90
68480;DHT22;55469;48.934;12.050;2023-04-30T01:28:44;13.80;85.90
68480;DHT22;55469;48.934;12.050;2023-04-30T01:31:14;13.80;86.00
68480;DHT22;55469;48.934;12.050;2023-04-30T01:33:43;13.80;86.00
68480;DHT22;55469;48.934;12.050;2023-04-30T01:39:36;13.80;86.20
68480;DHT22;55469;48.934;12.050;2023-04-30T01:42:19;13.80;86.00
68480;DHT22;55469;48.934;12.050;2023-04-30T01:50:19;13.70;86.10
68480;DHT22;55469;48.934;12.050;2023-04-30T01:52:54;13.70;85.80
68480;DHT22;55469;48.934;12.050;2023-04-30T01:55:27;13.70;86.10
68480;DHT22;55469;48.934;12.050;2023-04-30T01:57:59;13.70;85.90
68480;DHT22;55469;48.934;12.050;2023-04-30T02:00:26;13.70;85.70
68480;DHT22;55469;48.934;12.050;2023-04-30T02:02:55;13.70;86.30
68480;DHT22;55469;48.934;12.050;2023-04-30T02:05:20;13.70;86.20
68480;DHT22;55469;48.934;12.050;2023-04-30T02:07:48;13.70;86.00
68480;DHT22;55469;48.934;12.050;2023-04-30T02:10:21;13.70;86.00
68480;DHT22;55469;48.934;12.050;2023-04-30T02:12:48;13.60;86.00
68480;DHT22;55469;48.934;12.050;2023-04-30T02:15:14;13.60;86.10
68480;DHT22;55469;48.934;12.050;2023-04-30T02:17:40;13.60;86.10
68480;DHT22;55469;48.934;12.050;2023-04-30T02:20:06;13.60;86.00
68480;DHT22;55469;48.934;12.050;2023-04-30T02:22:33;13.50;86.20
68480;DHT22;55469;48.934;12.050;2023-04-30T02:24:58;13.60;86.10
68480;DHT22;55469;48.934;12.050;2023-04-30T02:27:25;13.60;86.20
68480;DHT22;55469;48.934;12.050;2023-04-30T02:29:52;13.60;86.40
68480;DHT22;55469;48.934;12.050;2023-04-30T02:32:18;13.60;86.30
68480;DHT22;55469;48.934;12.050;2023-04-30T02:34:44;13.60;86.10
68480;DHT22;55469;48.934;12.050;2023-04-30T02:37:10;13.60;86.10
68480;DHT22;55469;48.934;12.050;2023-04-30T02:39:36;13.50;86.10
68480;DHT22;55469;48.934;12.050;2023-04-30T02:42:02;13.50;86.30
68480;DHT22;55469;48.934;12.050;2023-04-30T02:44:29;13.50;86.30
68480;DHT22;55469;48.934;12.050;2023-04-30T02:46:54;13.50;86.40
68480;DHT22;55469;48.934;12.050;2023-04-30T02:49:20;13.50;86.40
68480;DHT22;55469;48.934;12.050;2023-04-30T02:51:46;13.50;86.60
68480;DHT22;55469;48.934;12.050;2023-04-30T02:54:11;13.50;86.30
68480;DHT22;55469;48.934;12.050;2023-04-30T02:56:37;13.50;86.50
68480;DHT22;55469;48.934;12.050;2023-04-30T02:59:04;13.50;86.50
68480;DHT22;55469;48.934;12.050;2023-04-30T03:01:29;13.50;86.50
68480;DHT22;55469;48.934;12.050;2023-04-30T03:03:55;13.50;86.60
68480;DHT22;55469;48.934;12.050;2023-04-30T03:06:22;13.50;86.60
68480;DHT22;55469;48.934;12.050;2023-04-30T03:08:48;13.40;86.50
68480;DHT22;55469;48.934;12.050;2023-04-30T03:11:14;13.40;86.50
68480;DHT22;55469;48.934;12.050;2023-04-30T03:13:40;13.40;86.60
68480;DHT22;55469;48.934;12.050;2023-04-30T03:16:05;13.40;87.70
68480;DHT22;55469;48.934;12.050;2023-04-30T03:18:31;13.40;86.50
68480;DHT22;55469;48.934;12.050;2023-04-30T03:20:57;13.40;86.60
68480;DHT22;55469;48.934;12.050;2023-04-30T03:23:25;13.40;86.70
68480;DHT22;55469;48.934;12.050;2023-04-30T03:25:52;13.40;86.70
68480;DHT22;55469;48.934;12.050;2023-04-30T03:28:18;13.40;86.60
68480;DHT22;55469;48.934;12.050;2023-04-30T03:30:43;13.40;86.60
68480;DHT22;55469;48.934;12.050;2023-04-30T03:33:09;13.40;86.80
68480;DHT22;55469;48.934;12.050;2023-04-30T03:35:35;13.40;86.50
68480;DHT22;55469;48.934;12.050;2023-04-30T03:38:01;13.40;86.80
68480;DHT22;55469;48.934;12.050;2023-04-30T03:40:27;13.40;86.60
68480;DHT22;55469;48.934;12.050;2023-04-30T03:42:53;13.40;86.90
68480;DHT22;55469;48.934;12.050;2023-04-30T03:45:18;13.40;86.80
68480;DHT22;55469;48.934;12.050;2023-04-30T03:47:44;13.40;86.80
68480;DHT22;55469;48.934;12.050;2023-04-30T03:50:10;13.40;86.70
68480;DHT22;55469;48.934;12.050;2023-04-30T03:52:36;13.30;87.90
68480;DHT22;55469;48.934;12.050;2023-04-30T03:55:03;13.40;86.90
68480;DHT22;55469;48.934;12.050;2023-04-30T03:57:29;13.30;86.60
68480;DHT22;55469;48.934;12.050;2023-04-30T03:59:55;13.30;86.80
68480;DHT22;55469;48.934;12.050;2023-04-30T04:02:21;13.30;86.80
68480;DHT22;55469;48.934;12.050;2023-04-30T04:04:47;13.30;86.90
68480;DHT22;55469;48.934;12.050;2023-04-30T04:07:13;13.30;86.90
68480;DHT22;55469;48.934;12.050;2023-04-30T04:09:39;13.30;87.00
68480;DHT22;55469;48.934;12.050;2023-04-30T04:12:05;13.30;87.00
68480;DHT22;55469;48.934;12.050;2023-04-30T04:14:31;13.30;86.90
68480;DHT22;55469;48.934;12.050;2023-04-30T04:16:57;13.30;87.00
68480;DHT22;55469;48.934;12.050;2023-04-30T04:19:26;13.30;86.90
68480;DHT22;55469;48.934;12.050;2023-04-30T04:21:52;13.30;86.80
68480;DHT22;55469;48.934;12.050;2023-04-30T04:24:18;13.30;87.00
68480;DHT22;55469;48.934;12.050;2023-04-30T04:26:44;13.30;86.90
68480;DHT22;55469;48.934;12.050;2023-04-30T04:29:10;13.30;86.90
68480;DHT22;55469;48.934;12.050;2023-04-30T04:31:36;13.30;86.80
68480;DHT22;55469;48.934;12.050;2023-04-30T04:34:03;13.30;86.80
68480;DHT22;55469;48.934;12.050;2023-04-30T04:36:30;13.30;87.00
68480;DHT22;55469;48.934;12.050;2023-04-30T04:38:57;13.30;86.90
68480;DHT22;55469;48.934;12.050;2023-04-30T04:41:30;13.30;87.00
68480;DHT22;55469;48.934;12.050;2023-04-30T04:44:00;13.30;86.90
68480;DHT22;55469;48.934;12.050;2023-04-30T04:46:27;13.30;86.90
68480;DHT22;55469;48.934;12.050;2023-04-30T04:48:54;13.30;86.90
68480;DHT22;55469;48.934;12.050;2023-04-30T04:51:20;13.30;86.80
68480;DHT22;55469;48.934;12.050;2023-04-30T04:53:46;13.30;86.70
68480;DHT22;55469;48.934;12.050;2023-04-30T04:56:12;13.30;86.70
68480;DHT22;55469;48.934;12.050;2023-04-30T04:58:38;13.30;86.60
68480;DHT22;55469;48.934;12.050;2023-04-30T05:01:04;13.30;86.70
68480;DHT22;55469;48.934;12.050;2023-04-30T05:03:31;13.30;86.70
68480;DHT22;55469;48.934;12.050;2023-04-30T05:05:58;13.30;86.90
68480;DHT22;55469;48.934;12.050;2023-04-30T05:08:23;13.30;86.60
68480;DHT22;55469;48.934;12.050;2023-04-30T05:10:50;13.30;86.90
68480;DHT22;55469;48.934;12.050;2023-04-30T05:13:16;13.30;86.70
68480;DHT22;55469;48.934;12.050;2023-04-30T05:15:41;13.30;86.60
68480;DHT22;55469;48.934;12.050;2023-04-30T05:18:07;13.30;86.60
68480;DHT22;55469;48.934;12.050;2023-04-30T05:20:33;13.30;86.90
68480;DHT22;55469;48.934;12.050;2023-04-30T05:22:58;13.30;86.80
68480;DHT22;55469;48.934;12.050;2023-04-30T05:25:24;13.30;86.80
68480;DHT22;55469;48.934;12.050;2023-04-30T05:27:50;13.30;86.70
68480;DHT22;55469;48.934;12.050;2023-04-30T05:30:16;13.30;87.30
68480;DHT22;55469;48.934;12.050;2023-04-30T05:32:43;13.30;86.90
68480;DHT22;55469;48.934;12.050;2023-04-30T05:35:18;13.30;87.30
68480;DHT22;55469;48.934;12.050;2023-04-30T05:37:44;13.30;87.60
68480;DHT22;55469;48.934;12.050;2023-04-30T05:40:10;13.30;87.50
68480;DHT22;55469;48.934;12.050;2023-04-30T05:42:37;13.30;87.10
68480;DHT22;55469;48.934;12.050;2023-04-30T05:45:05;13.30;88.20
68480;DHT22;55469;48.934;12.050;2023-04-30T05:47:32;13.30;86.60
68480;DHT22;55469;48.934;12.050;2023-04-30T05:49:58;13.30;86.70
68480;DHT22;55469;48.934;12.050;2023-04-30T05:52:24;13.40;86.60
68480;DHT22;55469;48.934;12.050;2023-04-30T05:54:49;13.30;86.50
68480;DHT22;55469;48.934;12.050;2023-04-30T05:57:16;13.40;86.50
68480;DHT22;55469;48.934;12.050;2023-04-30T05:59:41;13.40;86.40
68480;DHT22;55469;48.934;12.050;2023-04-30T06:02:08;13.40;86.20
68480;DHT22;55469;48.934;12.050;2023-04-30T06:04:34;13.40;85.80
68480;DHT22;55469;48.934;12.050;2023-04-30T06:06:59;13.40;86.00
68480;DHT22;55469;48.934;12.050;2023-04-30T06:09:25;13.40;86.10
68480;DHT22;55469;48.934;12.050;2023-04-30T06:11:51;13.40;85.80
68480;DHT22;55469;48.934;12.050;2023-04-30T06:14:18;13.40;86.00
68480;DHT22;55469;48.934;12.050;2023-04-30T06:16:44;13.40;86.30
68480;DHT22;55469;48.934;12.050;2023-04-30T06:19:11;13.40;85.90
68480;DHT22;55469;48.934;12.050;2023-04-30T06:21:37;13.40;86.30
68480;DHT22;55469;48.934;12.050;2023-04-30T06:24:03;13.40;85.80
68480;DHT22;55469;48.934;12.050;2023-04-30T06:26:29;13.40;85.80
68480;DHT22;55469;48.934;12.050;2023-04-30T06:28:55;13.30;85.80
68480;DHT22;55469;48.934;12.050;2023-04-30T06:31:21;13.30;86.10
68480;DHT22;55469;48.934;12.050;2023-04-30T06:33:47;13.30;85.90
68480;DHT22;55469;48.934;12.050;2023-04-30T06:36:13;13.30;85.90
68480;DHT22;55469;48.934;12.050;2023-04-30T06:38:39;13.30;85.70
68480;DHT22;55469;48.934;12.050;2023-04-30T06:41:06;13.30;85.80
68480;DHT22;55469;48.934;12.050;2023-04-30T06:43:31;13.40;85.70
68480;DHT22;55469;48.934;12.050;2023-04-30T06:45:57;13.30;85.90
68480;DHT22;55469;48.934;12.050;2023-04-30T06:48:23;13.30;85.70
68480;DHT22;55469;48.934;12.050;2023-04-30T06:50:49;13.30;85.80
68480;DHT22;55469;48.934;12.050;2023-04-30T06:53:14;13.30;85.80
68480;DHT22;55469;48.934;12.050;2023-04-30T06:55:41;13.30;86.00
68480;DHT22;55469;48.934;12.050;2023-04-30T06:58:08;13.30;85.70
68480;DHT22;55469;48.934;12.050;2023-04-30T07:00:34;13.30;85.70
68480;DHT22;55469;48.934;12.050;2023-04-30T07:03:00;13.30;85.80
68480;DHT22;55469;48.934;12.050;2023-04-30T07:05:28;13.30;85.70
68480;DHT22;55469;48.934;12.050;2023-04-30T07:07:55;13.30;85.60
68480;DHT22;55469;48.934;12.050;2023-04-30T07:10:21;13.30;85.70
68480;DHT22;55469;48.934;12.050;2023-04-30T07:12:47;13.30;87.00
68480;DHT22;55469;48.934;12.050;2023-04-30T07:15:13;13.30;85.70
68480;DHT22;55469;48.934;12.050;2023-04-30T07:17:39;13.30;85.70
68480;DHT22;55469;48.934;12.050;2023-04-30T07:20:08;13.40;85.70
68480;DHT22;55469;48.934;12.050;2023-04-30T07:22:34;13.40;85.50
68480;DHT22;55469;48.934;12.050;2023-04-30T07:25:00;13.40;85.60
68480;DHT22;55469;48.934;12.050;2023-04-30T07:27:26;13.40;85.40
68480;DHT22;55469;48.934;12.050;2023-04-30T07:29:53;13.40;85.30
68480;DHT22;55469;48.934;12.050;2023-04-30T07:32:19;13.40;85.40
68480;DHT22;55469;48.934;12.050;2023-04-30T07:34:45;13.40;85.30
68480;DHT22;55469;48.934;12.050;2023-04-30T07:37:11;13.40;85.30
68480;DHT22;55469;48.934;12.050;2023-04-30T07:39:37;13.40;85.30
68480;DHT22;55469;48.934;12.050;2023-04-30T07:42:03;13.40;85.20
68480;DHT22;55469;48.934;12.050;2023-04-30T07:44:30;13.50;85.10
68480;DHT22;55469;48.934;12.050;2023-04-30T07:46:56;13.50;85.20
68480;DHT22;55469;48.934;12.050;2023-04-30T07:49:21;13.50;85.10
68480;DHT22;55469;48.934;12.050;2023-04-30T07:51:47;13.50;86.10
68480;DHT22;55469;48.934;12.050;2023-04-30T07:54:13;13.50;85.00
68480;DHT22;55469;48.934;12.050;2023-04-30T07:56:39;13.60;84.90
68480;DHT22;55469;48.934;12.050;2023-04-30T07:59:06;13.60;84.60
68480;DHT22;55469;48.934;12.050;2023-04-30T08:01:31;13.60;84.50
68480;DHT22;55469;48.934;12.050;2023-04-30T08:03:57;13.60;84.40
68480;DHT22;55469;48.934;12.050;2023-04-30T08:06:23;13.60;84.40
68480;DHT22;55469;48.934;12.050;2023-04-30T08:08:49;13.60;84.40
68480;DHT22;55469;48.934;12.050;2023-04-30T08:11:15;13.70;84.50
68480;DHT22;55469;48.934;12.050;2023-04-30T08:13:41;13.70;84.40
68480;DHT22;55469;48.934;12.050;2023-04-30T08:16:07;13.70;84.50
68480;DHT22;55469;48.934;12.050;2023-04-30T08:18:33;13.70;84.40
68480;DHT22;55469;48.934;12.050;2023-04-30T08:20:59;13.80;84.40
68480;DHT22;55469;48.934;12.050;2023-04-30T08:23:26;13.80;84.10
68480;DHT22;55469;48.934;12.050;2023-04-30T08:25:52;13.90;84.00
68480;DHT22;55469;48.934;12.050;2023-04-30T08:28:18;13.90;84.10
68480;DHT22;55469;48.934;12.050;2023-04-30T08:30:43;13.90;83.90
68480;DHT22;55469;48.934;12.050;2023-04-30T08:33:10;13.90;84.00
68480;DHT22;55469;48.934;12.050;2023-04-30T08:35:35;13.90;84.00
68480;DHT22;55469;48.934;12.050;2023-04-30T08:38:01;13.90;84.10
68480;DHT22;55469;48.934;12.050;2023-04-30T08:40:27;13.90;84.00
68480;DHT22;55469;48.934;12.050;2023-04-30T08:43:07;13.90;84.10
68480;DHT22;55469;48.934;12.050;2023-04-30T08:45:34;13.90;84.00
68480;DHT22;55469;48.934;12.050;2023-04-30T08:48:02;13.90;84.20
68480;DHT22;55469;48.934;12.050;2023-04-30T08:50:30;14.00;84.10
68480;DHT22;55469;48.934;12.050;2023-04-30T08:53:00;14.00;84.00
68480;DHT22;55469;48.934;12.050;2023-04-30T08:55:26;14.00;83.80
68480;DHT22;55469;48.934;12.050;2023-04-30T08:57:52;14.00;83.80
68480;DHT22;55469;48.934;12.050;2023-04-30T09:00:18;14.00;83.80
68480;DHT22;55469;48.934;12.050;2023-04-30T09:02:45;14.00;83.70
68480;DHT22;55469;48.934;12.050;2023-04-30T09:05:14;14.00;83.90
68480;DHT22;55469;48.934;12.050;2023-04-30T09:07:42;14.00;83.80
68480;DHT22;55469;48.934;12.050;2023-04-30T09:10:19;14.10;83.80
68480;DHT22;55469;48.934;12.050;2023-04-30T09:13:04;14.10;83.60
68480;DHT22;55469;48.934;12.050;2023-04-30T09:15:32;14.10;83.30
68480;DHT22;55469;48.934;12.050;2023-04-30T09:18:06;14.10;83.50
68480;DHT22;55469;48.934;12.050;2023-04-30T09:20:36;14.20;83.30
68480;DHT22;55469;48.934;12.050;2023-04-30T09:23:07;14.20;83.20
68480;DHT22;55469;48.934;12.050;2023-04-30T09:25:41;14.20;83.10
68480;DHT22;55469;48.934;12.050;2023-04-30T09:28:12;14.20;83.10
68480;DHT22;55469;48.934;12.050;2023-04-30T09:30:39;14.20;83.20
68480;DHT22;55469;48.934;12.050;2023-04-30T09:33:06;14.20;83.00
68480;DHT22;55469;48.934;12.050;2023-04-30T09:35:36;14.30;83.00
68480;DHT22;55469;48.934;12.050;2023-04-30T09:40:56;14.40;82.60
68480;DHT22;55469;48.934;12.050;2023-04-30T09:43:23;14.40;82.60
68480;DHT22;55469;48.934;12.050;2023-04-30T09:45:48;14.50;82.60
68480;DHT22;55469;48.934;12.050;2023-04-30T09:48:17;14.50;82.30
68480;DHT22;55469;48.934;12.050;2023-04-30T09:50:45;14.50;82.20
68480;DHT22;55469;48.934;12.050;2023-04-30T09:53:12;14.50;82.30
68480;DHT22;55469;48.934;12.050;2023-04-30T09:55:45;14.60;82.10
68480;DHT22;55469;48.934;12.050;2023-04-30T09:58:14;14.60;82.00
68480;DHT22;55469;48.934;12.050;2023-04-30T10:00:41;14.60;81.90
68480;DHT22;55469;48.934;12.050;2023-04-30T10:03:09;14.70;81.80
68480;DHT22;55469;48.934;12.050;2023-04-30T10:05:43;14.70;81.60
68480;DHT22;55469;48.934;12.050;2023-04-30T10:08:36;14.70;81.50
68480;DHT22;55469;48.934;12.050;2023-04-30T10:11:08;14.70;81.40
68480;DHT22;55469;48.934;12.050;2023-04-30T10:13:41;14.70;81.60
68480;DHT22;55469;48.934;12.050;2023-04-30T10:16:17;14.80;81.60
68480;DHT22;55469;48.934;12.050;2023-04-30T10:19:02;14.80;81.70
68480;DHT22;55469;48.934;12.050;2023-04-30T10:21:39;14.80;81.50
68480;DHT22;55469;48.934;12.050;2023-04-30T10:24:07;14.90;81.50
68480;DHT22;55469;48.934;12.050;2023-04-30T10:26:34;14.80;81.30
68480;DHT22;55469;48.934;12.050;2023-04-30T10:29:00;14.90;81.40
68480;DHT22;55469;48.934;12.050;2023-04-30T10:31:27;14.90;81.30
68480;DHT22;55469;48.934;12.050;2023-04-30T10:36:36;14.90;81.20
68480;DHT22;55469;48.934;12.050;2023-04-30T10:39:06;15.00;81.10
68480;DHT22;55469;48.934;12.050;2023-04-30T10:41:32;14.90;81.20
68480;DHT22;55469;48.934;12.050;2023-04-30T10:44:01;15.00;81.10
68480;DHT22;55469;48.934;12.050;2023-04-30T10:46:27;15.00;81.10
68480;DHT22;55469;48.934;12.050;2023-04-30T10:48:54;15.00;81.10
68480;DHT22;55469;48.934;12.050;2023-04-30T10:51:20;15.10;80.90
68480;DHT22;55469;48.934;12.050;2023-04-30T10:53:50;15.10;80.90
68480;DHT22;55469;48.934;12.050;2023-04-30T10:56:32;15.10;80.70
68480;DHT22;55469;48.934;12.050;2023-04-30T10:58:59;15.10;80.40
68480;DHT22;55469;48.934;12.050;2023-04-30T11:01:27;15.10;80.50
68480;DHT22;55469;48.934;12.050;2023-04-30T11:04:09;15.20;81.50
68480;DHT22;55469;48.934;12.050;2023-04-30T11:09:35;15.20;80.30
68480;DHT22;55469;48.934;12.050;2023-04-30T11:12:18;15.20;80.30
68480;DHT22;55469;48.934;12.050;2023-04-30T11:14:45;15.20;80.60
68480;DHT22;55469;48.934;12.050;2023-04-30T11:17:20;15.20;80.40
68480;DHT22;55469;48.934;12.050;2023-04-30T11:19:51;15.30;80.40
68480;DHT22;55469;48.934;12.050;2023-04-30T11:22:20;15.30;80.30
68480;DHT22;55469;48.934;12.050;2023-04-30T11:25:04;15.30;80.20
68480;DHT22;55469;48.934;12.050;2023-04-30T11:27:35;15.30;80.10
68480;DHT22;55469;48.934;12.050;2023-04-30T11:30:03;15.40;80.20
68480;DHT22;55469;48.934;12.050;2023-04-30T11:32:36;15.60;74.60
68480;DHT22;55469;48.934;12.050;2023-04-30T11:35:03;15.60;73.60
68480;DHT22;55469;48.934;12.050;2023-04-30T11:37:35;15.60;74.60
68480;DHT22;55469;48.934;12.050;2023-04-30T11:40:04;15.50;75.20
68480;DHT22;55469;48.934;12.050;2023-04-30T11:42:32;15.50;76.00
68480;DHT22;55469;48.934;12.050;2023-04-30T11:45:04;15.40;75.90
68480;DHT22;55469;48.934;12.050;2023-04-30T11:47:50;15.50;76.40
68480;DHT22;55469;48.934;12.050;2023-04-30T11:50:20;15.60;76.50
68480;DHT22;55469;48.934;12.050;2023-04-30T11:52:54;15.60;76.80
68480;DHT22;55469;48.934;12.050;2023-04-30T11:55:25;15.70;76.60
68480;DHT22;55469;48.934;12.050;2023-04-30T11:57:54;15.80;76.40
68480;DHT22;55469;48.934;12.050;2023-04-30T12:00:28;15.80;76.80
68480;DHT22;55469;48.934;12.050;2023-04-30T12:02:56;15.80;76.50
68480;DHT22;55469;48.934;12.050;2023-04-30T12:05:24;15.90;76.50
68480;DHT22;55469;48.934;12.050;2023-04-30T12:08:04;16.00;76.50
68480;DHT22;55469;48.934;12.050;2023-04-30T12:10:32;16.00;76.20
68480;DHT22;55469;48.934;12.050;2023-04-30T12:12:58;16.00;76.60
68480;DHT22;55469;48.934;12.050;2023-04-30T12:15:25;16.00;76.70
68480;DHT22;55469;48.934;12.050;2023-04-30T12:17:56;16.00;76.80
68480;DHT22;55469;48.934;12.050;2023-04-30T12:20:25;15.90;77.90
68480;DHT22;55469;48.934;12.050;2023-04-30T12:22:52;15.90;77.00
68480;DHT22;55469;48.934;12.050;2023-04-30T12:25:20;15.90;77.10
68480;DHT22;55469;48.934;12.050;2023-04-30T12:27:48;15.90;77.30
68480;DHT22;55469;48.934;12.050;2023-04-30T12:30:23;15.90;77.40
68480;DHT22;55469;48.934;12.050;2023-04-30T12:32:55;15.90;77.50
68480;DHT22;55469;48.934;12.050;2023-04-30T12:35:22;15.90;77.30
68480;DHT22;55469;48.934;12.050;2023-04-30T12:38:00;16.10;77.20
68480;DHT22;55469;48.934;12.050;2023-04-30T12:40:27;16.10;77.10
68480;DHT22;55469;48.934;12.050;2023-04-30T12:43:03;16.20;76.90
68480;DHT22;55469;48.934;12.050;2023-04-30T12:45:50;16.20;76.80
68480;DHT22;55469;48.934;12.050;2023-04-30T12:48:19;16.30;76.50
68480;DHT22;55469;48.934;12.050;2023-04-30T12:50:58;16.40;76.00
68480;DHT22;55469;48.934;12.050;2023-04-30T12:53:26;16.50;75.80
68480;DHT22;55469;48.934;12.050;2023-04-30T12:56:17;16.50;75.80
68480;DHT22;55469;48.934;12.050;2023-04-30T12:58:45;16.50;75.80
68480;DHT22;55469;48.934;12.050;2023-04-30T13:01:15;16.50;76.30
68480;DHT22;55469;48.934;12.050;2023-04-30T13:03:42;16.60;76.00
68480;DHT22;55469;48.934;12.050;2023-04-30T13:06:08;16.60;75.90
68480;DHT22;55469;48.934;12.050;2023-04-30T13:08:35;16.60;75.90
68480;DHT22;55469;48.934;12.050;2023-04-30T13:11:01;16.60;75.90
68480;DHT22;55469;48.934;12.050;2023-04-30T13:13:26;16.70;76.00
68480;DHT22;55469;48.934;12.050;2023-04-30T13:15:52;16.70;75.90
68480;DHT22;55469;48.934;12.050;2023-04-30T13:18:18;16.70;76.00
68480;DHT22;55469;48.934;12.050;2023-04-30T13:20:44;16.70;76.00
68480;DHT22;55469;48.934;12.050;2023-04-30T13:23:09;16.70;76.00
68480;DHT22;55469;48.934;12.050;2023-04-30T13:25:38;16.80;75.80
68480;DHT22;55469;48.934;12.050;2023-04-30T13:28:04;16.80;75.70
68480;DHT22;55469;48.934;12.050;2023-04-30T13:30:30;16.90;75.30
68480;DHT22;55469;48.934;12.050;2023-04-30T13:32:56;17.00;75.10
68480;DHT22;55469;48.934;12.050;2023-04-30T13:35:22;17.00;75.00
68480;DHT22;55469;48.934;12.050;2023-04-30T13:37:48;17.10;65.80
68480;DHT22;55469;48.934;12.050;2023-04-30T13:40:17;17.20;65.40
68480;DHT22;55469;48.934;12.050;2023-04-30T13:44:51;17.30;63.50
68480;DHT22;55469;48.934;12.050;2023-04-30T13:47:19;17.60;63.40
68480;DHT22;55469;48.934;12.050;2023-04-30T13:49:45;17.90;62.10
68480;DHT22;55469;48.934;12.050;2023-04-30T13:52:11;18.00;62.00
68480;DHT22;55469;48.934;12.050;2023-04-30T13:54:37;18.00;60.60
68480;DHT22;55469;48.934;12.050;2023-04-30T13:57:03;18.00;60.30
68480;DHT22;55469;48.934;12.050;2023-04-30T14:02:08;17.80;62.20
68480;DHT22;55469;48.934;12.050;2023-04-30T14:04:34;17.80;65.50
68480;DHT22;55469;48.934;12.050;2023-04-30T14:07:00;17.70;66.10
68480;DHT22;55469;48.934;12.050;2023-04-30T14:09:26;17.60;66.80
68480;DHT22;55469;48.934;12.050;2023-04-30T14:11:52;17.60;67.30
68480;DHT22;55469;48.934;12.050;2023-04-30T14:14:17;17.60;67.30
68480;DHT22;55469;48.934;12.050;2023-04-30T14:16:44;17.80;67.50
68480;DHT22;55469;48.934;12.050;2023-04-30T14:19:10;17.80;67.50
68480;DHT22;55469;48.934;12.050;2023-04-30T14:21:35;17.80;67.80
68480;DHT22;55469;48.934;12.050;2023-04-30T14:24:01;17.80;67.90
68480;DHT22;55469;48.934;12.050;2023-04-30T14:26:27;17.90;67.50
68480;DHT22;55469;48.934;12.050;2023-04-30T14:28:53;17.90;67.80
68480;DHT22;55469;48.934;12.050;2023-04-30T14:31:18;17.90;67.60
68480;DHT22;55469;48.934;12.050;2023-04-30T14:33:44;18.00;67.80
68480;DHT22;55469;48.934;12.050;2023-04-30T14:36:10;18.00;67.80
68480;DHT22;55469;48.934;12.050;2023-04-30T14:38:35;18.10;67.90
68480;DHT22;55469;48.934;12.050;2023-04-30T14:41:01;18.20;68.00
68480;DHT22;55469;48.934;12.050;2023-04-30T14:43:27;18.30;67.90
68480;DHT22;55469;48.934;12.050;2023-04-30T14:45:53;18.30;67.70
68480;DHT22;55469;48.934;12.050;2023-04-30T14:48:19;18.40;67.70
68480;DHT22;55469;48.934;12.050;2023-04-30T14:50:44;18.40;68.00
68480;DHT22;55469;48.934;12.050;2023-04-30T14:53:11;18.40;68.10
68480;DHT22;55469;48.934;12.050;2023-04-30T14:55:38;18.30;68.40
68480;DHT22;55469;48.934;12.050;2023-04-30T14:58:04;18.30;68.60
68480;DHT22;55469;48.934;12.050;2023-04-30T15:00:30;18.30;68.40
68480;DHT22;55469;48.934;12.050;2023-04-30T15:02:57;18.30;68.30
68480;DHT22;55469;48.934;12.050;2023-04-30T15:05:23;18.40;68.40
68480;DHT22;55469;48.934;12.050;2023-04-30T15:07:50;18.50;68.20
68480;DHT22;55469;48.934;12.050;2023-04-30T15:10:16;18.50;68.20
68480;DHT22;55469;48.934;12.050;2023-04-30T15:12:42;18.50;68.40
68480;DHT22;55469;48.934;12.050;2023-04-30T15:15:08;18.50;68.30
68480;DHT22;55469;48.934;12.050;2023-04-30T15:17:34;18.50;68.40
68480;DHT22;55469;48.934;12.050;2023-04-30T15:20:04;18.50;69.70
68480;DHT22;55469;48.934;12.050;2023-04-30T15:22:31;18.40;69.10
68480;DHT22;55469;48.934;12.050;2023-04-30T15:24:58;18.50;69.20
68480;DHT22;55469;48.934;12.050;2023-04-30T15:27:26;18.50;69.10
68480;DHT22;55469;48.934;12.050;2023-04-30T15:29:52;18.60;68.80
68480;DHT22;55469;48.934;12.050;2023-04-30T15:32:18;18.60;69.00
68480;DHT22;55469;48.934;12.050;2023-04-30T15:34:45;18.70;68.80
68480;DHT22;55469;48.934;12.050;2023-04-30T15:37:11;18.70;69.00
68480;DHT22;55469;48.934;12.050;2023-04-30T15:39:36;18.70;69.20
68480;DHT22;55469;48.934;12.050;2023-04-30T15:42:02;18.70;69.10
68480;DHT22;55469;48.934;12.050;2023-04-30T15:44:28;18.70;69.10